sensor_id;sensor_type;location;lat;lon;timestamp;pressure;altitude;pressure_sealevel;temperature;humidity
26489;BME280;14169;43.684;10.484;2023-02-12T00:00:07;103437.81;;;3.06;100.00
26489;BME280;14169;43.684;10.484;2023-02-12T00:02:32;103443.22;;;3.12;100.00
26489;BME280;14169;43.684;10.484;2023-02-12T00:04:58;103444.91;;;3.12;100.00
26489;BME280;14169;43.684;10.484;2023-02-12T00:07:23;103443.97;;;3.10;100.00
26489;BME280;14169;43.684;10.484;2023-02-12T00:09:49;103443.66;;;3.02;100.00
26489;BME280;14169;43.684;10.484;2023-02-12T00:12:15;103448.22;;;2.89;100.00
26489;BME280;14169;43.684;10.484;2023-02-12T00:14:41;103453.16;;;2.84;100.00
26489;BME280;14169;43.684;10.484;2023-02-12T00:17:06;103448.69;;;2.80;100.00
26489;BME280;14169;43.684;10.484;2023-02-12T00:19:31;103439.03;;;2.75;100.00
26489;BME280;14169;43.684;10.484;2023-02-12T00:21:57;103443.06;;;2.70;100.00
26489;BME280;14169;43.684;10.484;2023-02-12T00:24:22;103445.53;;;2.67;100.00
26489;BME280;14169;43.684;10.484;2023-02-12T00:26:48;103450.34;;;2.59;100.00
26489;BME280;14169;43.684;10.484;2023-02-12T00:29:15;103448.03;;;2.46;100.00
26489;BME280;14169;43.684;10.484;2023-02-12T00:31:40;103445.84;;;2.36;100.00
26489;BME280;14169;43.684;10.484;2023-02-12T00:34:06;103444.03;;;2.33;100.00
26489;BME280;14169;43.684;10.484;2023-02-12T00:36:32;103443.06;;;2.31;100.00
26489;BME280;14169;43.684;10.484;2023-02-12T00:38:58;103440.31;;;2.27;100.00
26489;BME280;14169;43.684;10.484;2023-02-12T00:41:24;103441.66;;;2.19;100.00
26489;BME280;14169;43.684;10.484;2023-02-12T00:43:50;103438.75;;;2.11;100.00
26489;BME280;14169;43.684;10.484;2023-02-12T00:46:16;103430.75;;;2.05;100.00
26489;BME280;14169;43.684;10.484;2023-02-12T00:48:41;103430.59;;;2.02;100.00
26489;BME280;14169;43.684;10.484;2023-02-12T00:51:06;103429.41;;;1.96;100.00
26489;BME280;14169;43.684;10.484;2023-02-12T00:53:32;103423.22;;;1.91;100.00
26489;BME280;14169;43.684;10.484;2023-02-12T00:55:58;103415.28;;;1.86;100.00
26489;BME280;14169;43.684;10.484;2023-02-12T00:58:24;103407.34;;;1.82;100.00
26489;BME280;14169;43.684;10.484;2023-02-12T01:00:50;103411.69;;;1.83;100.00
26489;BME280;14169;43.684;10.484;2023-02-12T01:03:15;103415.06;;;1.82;100.00
26489;BME280;14169;43.684;10.484;2023-02-12T01:05:41;103426.00;;;1.78;100.00
26489;BME280;14169;43.684;10.484;2023-02-12T01:08:07;103431.91;;;1.75;100.00
26489;BME280;14169;43.684;10.484;2023-02-12T01:10:34;103436.81;;;1.71;100.00
26489;BME280;14169;43.684;10.484;2023-02-12T01:13:00;103434.84;;;1.65;100.00
26489;BME280;14169;43.684;10.484;2023-02-12T01:15:25;103435.50;;;1.61;100.00
26489;BME280;14169;43.684;10.484;2023-02-12T01:17:51;103431.97;;;1.59;100.00
26489;BME280;14169;43.684;10.484;2023-02-12T01:20:19;103431.03;;;1.57;100.00
26489;BME280;14169;43.684;10.484;2023-02-12T01:22:45;103431.81;;;1.56;100.00
26489;BME280;14169;43.684;10.484;2023-02-12T01:25:10;103428.28;;;1.54;100.00
26489;BME280;14169;43.684;10.484;2023-02-12T01:27:36;103423.22;;;1.56;100.00
26489;BME280;14169;43.684;10.484;2023-02-12T01:30:02;103419.13;;;1.59;100.00
26489;BME280;14169;43.684;10.484;2023-02-12T01:32:27;103426.00;;;1.60;100.00
26489;BME280;14169;43.684;10.484;2023-02-12T01:34:53;103435.63;;;1.64;100.00
26489;BME280;14169;43.684;10.484;2023-02-12T01:37:18;103434.59;;;1.61;100.00
26489;BME280;14169;43.684;10.484;2023-02-12T01:39:44;103421.88;;;1.64;100.00
26489;BME280;14169;43.684;10.484;2023-02-12T01:42:12;103422.19;;;1.70;100.00
26489;BME280;14169;43.684;10.484;2023-02-12T01:44:43;103428.38;;;1.73;100.00
26489;BME280;14169;43.684;10.484;2023-02-12T01:47:17;103428.88;;;1.66;100.00
26489;BME280;14169;43.684;10.484;2023-02-12T01:49:44;103418.66;;;1.68;100.00
26489;BME280;14169;43.684;10.484;2023-02-12T01:52:45;103422.19;;;1.70;100.00
26489;BME280;14169;43.684;10.484;2023-02-12T01:55:13;103419.53;;;1.68;100.00
26489;BME280;14169;43.684;10.484;2023-02-12T01:57:42;103411.84;;;1.68;100.00
26489;BME280;14169;43.684;10.484;2023-02-12T02:00:12;103410.00;;;1.66;100.00
26489;BME280;14169;43.684;10.484;2023-02-12T02:02:38;103404.88;;;1.66;100.00
26489;BME280;14169;43.684;10.484;2023-02-12T02:05:05;103419.31;;;1.64;100.00
26489;BME280;14169;43.684;10.484;2023-02-12T02:07:31;103411.47;;;1.61;100.00
26489;BME280;14169;43.684;10.484;2023-02-12T02:09:57;103407.13;;;1.60;100.00
26489;BME280;14169;43.684;10.484;2023-02-12T02:12:24;103408.56;;;1.53;100.00
26489;BME280;14169;43.684;10.484;2023-02-12T02:15:09;103410.25;;;1.52;100.00
26489;BME280;14169;43.684;10.484;2023-02-12T02:22:58;103398.72;;;1.44;100.00
26489;BME280;14169;43.684;10.484;2023-02-12T02:28:58;103388.22;;;1.40;100.00
26489;BME280;14169;43.684;10.484;2023-02-12T02:34:41;103373.94;;;1.27;100.00
26489;BME280;14169;43.684;10.484;2023-02-12T02:40:18;103378.84;;;1.23;100.00
26489;BME280;14169;43.684;10.484;2023-02-12T02:42:30;103370.03;;;1.18;100.00
26489;BME280;14169;43.684;10.484;2023-02-12T02:45:02;103372.53;;;1.16;100.00
26489;BME280;14169;43.684;10.484;2023-02-12T02:47:37;103372.41;;;1.13;100.00
26489;BME280;14169;43.684;10.484;2023-02-12T02:50:16;103373.13;;;1.11;100.00
26489;BME280;14169;43.684;10.484;2023-02-12T02:53:04;103374.72;;;1.09;100.00
26489;BME280;14169;43.684;10.484;2023-02-12T02:55:41;103372.94;;;1.08;100.00
26489;BME280;14169;43.684;10.484;2023-02-12T02:58:12;103368.63;;;1.07;100.00
26489;BME280;14169;43.684;10.484;2023-02-12T03:00:43;103372.00;;;1.06;100.00
26489;BME280;14169;43.684;10.484;2023-02-12T03:03:28;103370.84;;;0.99;100.00
26489;BME280;14169;43.684;10.484;2023-02-12T03:06:09;103382.72;;;0.97;100.00
26489;BME280;14169;43.684;10.484;2023-02-12T03:08:48;103378.31;;;0.95;100.00
26489;BME280;14169;43.684;10.484;2023-02-12T03:11:33;103362.00;;;0.94;100.00
26489;BME280;14169;43.684;10.484;2023-02-12T03:14:06;103360.16;;;0.92;100.00
26489;BME280;14169;43.684;10.484;2023-02-12T03:19:27;103352.34;;;0.89;100.00
26489;BME280;14169;43.684;10.484;2023-02-12T03:21:59;103362.53;;;0.87;100.00
26489;BME280;14169;43.684;10.484;2023-02-12T03:24:35;103354.91;;;0.89;100.00
26489;BME280;14169;43.684;10.484;2023-02-12T03:27:09;103356.22;;;0.81;100.00
26489;BME280;14169;43.684;10.484;2023-02-12T03:29:37;103356.28;;;0.82;100.00
26489;BME280;14169;43.684;10.484;2023-02-12T03:37:13;103366.22;;;0.76;100.00
26489;BME280;14169;43.684;10.484;2023-02-12T03:44:57;103362.63;;;0.73;100.00
26489;BME280;14169;43.684;10.484;2023-02-12T03:47:33;103355.75;;;0.72;100.00
26489;BME280;14169;43.684;10.484;2023-02-12T03:52:46;103359.84;;;0.68;100.00
26489;BME280;14169;43.684;10.484;2023-02-12T03:55:14;103368.28;;;0.66;100.00
26489;BME280;14169;43.684;10.484;2023-02-12T03:57:43;103364.75;;;0.63;100.00
26489;BME280;14169;43.684;10.484;2023-02-12T04:00:16;103358.56;;;0.60;100.00
26489;BME280;14169;43.684;10.484;2023-02-12T04:02:42;103361.13;;;0.60;100.00
26489;BME280;14169;43.684;10.484;2023-02-12T04:05:20;103366.19;;;0.58;100.00
26489;BME280;14169;43.684;10.484;2023-02-12T04:07:46;103361.06;;;0.58;100.00
26489;BME280;14169;43.684;10.484;2023-02-12T04:10:12;103363.19;;;0.49;100.00
26489;BME280;14169;43.684;10.484;2023-02-12T04:18:19;103372.59;;;0.50;100.00
26489;BME280;14169;43.684;10.484;2023-02-12T04:21:17;103373.44;;;0.49;100.00
26489;BME280;14169;43.684;10.484;2023-02-12T04:32:03;103360.31;;;0.27;100.00
26489;BME280;14169;43.684;10.484;2023-02-12T04:34:49;103370.31;;;0.23;100.00
26489;BME280;14169;43.684;10.484;2023-02-12T04:37:27;103371.09;;;0.22;100.00
26489;BME280;14169;43.684;10.484;2023-02-12T04:39:55;103373.50;;;0.19;100.00
26489;BME280;14169;43.684;10.484;2023-02-12T04:42:20;103376.56;;;0.12;100.00
26489;BME280;14169;43.684;10.484;2023-02-12T04:44:47;103366.78;;;0.05;100.00
26489;BME280;14169;43.684;10.484;2023-02-12T04:47:14;103366.44;;;-0.01;100.00
26489;BME280;14169;43.684;10.484;2023-02-12T04:49:39;103364.78;;;-0.01;100.00
26489;BME280;14169;43.684;10.484;2023-02-12T04:52:05;103363.00;;;-0.02;100.00
26489;BME280;14169;43.684;10.484;2023-02-12T04:54:31;103360.28;;;-0.05;100.00
26489;BME280;14169;43.684;10.484;2023-02-12T04:56:56;103354.22;;;-0.07;100.00
26489;BME280;14169;43.684;10.484;2023-02-12T04:59:22;103346.13;;;-0.14;100.00
26489;BME280;14169;43.684;10.484;2023-02-12T05:01:47;103347.53;;;-0.19;100.00
26489;BME280;14169;43.684;10.484;2023-02-12T05:04:14;103354.34;;;-0.20;100.00
26489;BME280;14169;43.684;10.484;2023-02-12T05:06:40;103354.19;;;-0.23;100.00
26489;BME280;14169;43.684;10.484;2023-02-12T05:09:07;103349.13;;;-0.22;100.00
26489;BME280;14169;43.684;10.484;2023-02-12T05:11:33;103346.56;;;-0.22;100.00
26489;BME280;14169;43.684;10.484;2023-02-12T05:13:59;103350.09;;;-0.19;100.00
26489;BME280;14169;43.684;10.484;2023-02-12T05:16:24;103349.00;;;-0.25;100.00
26489;BME280;14169;43.684;10.484;2023-02-12T05:18:50;103340.41;;;-0.25;100.00
26489;BME280;14169;43.684;10.484;2023-02-12T05:21:16;103345.53;;;-0.25;100.00
26489;BME280;14169;43.684;10.484;2023-02-12T05:23:42;103355.59;;;-0.28;100.00
26489;BME280;14169;43.684;10.484;2023-02-12T05:26:12;103355.53;;;-0.30;100.00
26489;BME280;14169;43.684;10.484;2023-02-12T05:28:38;103359.75;;;-0.30;100.00
26489;BME280;14169;43.684;10.484;2023-02-12T05:31:06;103363.84;;;-0.34;100.00
26489;BME280;14169;43.684;10.484;2023-02-12T05:33:32;103356.00;;;-0.37;100.00
26489;BME280;14169;43.684;10.484;2023-02-12T05:36:06;103356.78;;;-0.38;100.00
26489;BME280;14169;43.684;10.484;2023-02-12T05:38:32;103360.16;;;-0.39;100.00
26489;BME280;14169;43.684;10.484;2023-02-12T05:41:06;103357.59;;;-0.39;100.00
26489;BME280;14169;43.684;10.484;2023-02-12T05:43:32;103366.00;;;-0.41;100.00
26489;BME280;14169;43.684;10.484;2023-02-12T05:45:59;103366.88;;;-0.41;100.00
26489;BME280;14169;43.684;10.484;2023-02-12T05:48:25;103372.00;;;-0.41;100.00
26489;BME280;14169;43.684;10.484;2023-02-12T05:50:50;103370.31;;;-0.40;100.00
26489;BME280;14169;43.684;10.484;2023-02-12T05:53:16;103379.56;;;-0.42;100.00
26489;BME280;14169;43.684;10.484;2023-02-12T05:55:41;103371.91;;;-0.42;100.00
26489;BME280;14169;43.684;10.484;2023-02-12T05:58:07;103369.25;;;-0.44;100.00
26489;BME280;14169;43.684;10.484;2023-02-12T06:00:32;103364.88;;;-0.46;100.00
26489;BME280;14169;43.684;10.484;2023-02-12T06:02:57;103375.00;;;-0.48;100.00
26489;BME280;14169;43.684;10.484;2023-02-12T06:05:23;103370.69;;;-0.49;100.00
26489;BME280;14169;43.684;10.484;2023-02-12T06:07:48;103365.31;;;-0.53;100.00
26489;BME280;14169;43.684;10.484;2023-02-12T06:10:14;103368.69;;;-0.54;100.00
26489;BME280;14169;43.684;10.484;2023-02-12T06:12:39;103372.09;;;-0.54;100.00
26489;BME280;14169;43.684;10.484;2023-02-12T06:15:07;103372.84;;;-0.56;100.00
26489;BME280;14169;43.684;10.484;2023-02-12T06:17:33;103371.78;;;-0.60;100.00
26489;BME280;14169;43.684;10.484;2023-02-12T06:19:59;103372.59;;;-0.61;100.00
26489;BME280;14169;43.684;10.484;2023-02-12T06:22:26;103375.22;;;-0.59;100.00
26489;BME280;14169;43.684;10.484;2023-02-12T06:24:51;103366.84;;;-0.57;100.00
26489;BME280;14169;43.684;10.484;2023-02-12T06:27:16;103371.25;;;-0.54;100.00
26489;BME280;14169;43.684;10.484;2023-02-12T06:29:42;103371.47;;;-0.50;100.00
26489;BME280;14169;43.684;10.484;2023-02-12T06:32:07;103375.19;;;-0.45;100.00
26489;BME280;14169;43.684;10.484;2023-02-12T06:34:33;103384.00;;;-0.40;100.00
26489;BME280;14169;43.684;10.484;2023-02-12T06:36:58;103379.91;;;-0.36;100.00
26489;BME280;14169;43.684;10.484;2023-02-12T06:39:24;103373.38;;;-0.31;100.00
26489;BME280;14169;43.684;10.484;2023-02-12T06:41:49;103380.34;;;-0.29;100.00
26489;BME280;14169;43.684;10.484;2023-02-12T06:44:15;103382.19;;;-0.26;100.00
26489;BME280;14169;43.684;10.484;2023-02-12T06:46:40;103374.69;;;-0.23;100.00
26489;BME280;14169;43.684;10.484;2023-02-12T06:49:06;103381.81;;;-0.17;100.00
26489;BME280;14169;43.684;10.484;2023-02-12T06:51:31;103379.50;;;-0.13;100.00
26489;BME280;14169;43.684;10.484;2023-02-12T06:53:57;103384.25;;;-0.04;100.00
26489;BME280;14169;43.684;10.484;2023-02-12T06:56:23;103383.44;;;-0.03;100.00
26489;BME280;14169;43.684;10.484;2023-02-12T06:58:55;103389.69;;;0.02;100.00
26489;BME280;14169;43.684;10.484;2023-02-12T07:01:23;103383.81;;;0.04;100.00
26489;BME280;14169;43.684;10.484;2023-02-12T07:03:51;103376.97;;;0.03;100.00
26489;BME280;14169;43.684;10.484;2023-02-12T07:06:18;103372.72;;;0.04;100.00
26489;BME280;14169;43.684;10.484;2023-02-12T07:08:43;103394.25;;;0.07;100.00
26489;BME280;14169;43.684;10.484;2023-02-12T07:11:09;103396.19;;;0.27;100.00
26489;BME280;14169;43.684;10.484;2023-02-12T07:13:35;103385.03;;;0.43;100.00
26489;BME280;14169;43.684;10.484;2023-02-12T07:16:09;103388.97;;;0.52;100.00
26489;BME280;14169;43.684;10.484;2023-02-12T07:18:35;103385.47;;;0.68;100.00
26489;BME280;14169;43.684;10.484;2023-02-12T07:21:01;103392.84;;;0.78;100.00
26489;BME280;14169;43.684;10.484;2023-02-12T07:23:26;103393.53;;;0.92;100.00
26489;BME280;14169;43.684;10.484;2023-02-12T07:26:01;103391.88;;;1.10;100.00
26489;BME280;14169;43.684;10.484;2023-02-12T07:28:27;103399.50;;;1.26;100.00
26489;BME280;14169;43.684;10.484;2023-02-12T07:30:53;103402.13;;;1.43;100.00
26489;BME280;14169;43.684;10.484;2023-02-12T07:33:19;103411.56;;;1.62;100.00
26489;BME280;14169;43.684;10.484;2023-02-12T07:35:45;103409.72;;;1.77;100.00
26489;BME280;14169;43.684;10.484;2023-02-12T07:38:11;103411.97;;;1.89;100.00
26489;BME280;14169;43.684;10.484;2023-02-12T07:40:36;103410.97;;;2.04;100.00
26489;BME280;14169;43.684;10.484;2023-02-12T07:43:02;103401.31;;;2.18;100.00
26489;BME280;14169;43.684;10.484;2023-02-12T07:45:27;103413.97;;;2.32;100.00
26489;BME280;14169;43.684;10.484;2023-02-12T07:47:52;103419.72;;;2.46;100.00
26489;BME280;14169;43.684;10.484;2023-02-12T07:50:18;103424.69;;;2.61;100.00
26489;BME280;14169;43.684;10.484;2023-02-12T07:52:43;103432.09;;;2.74;100.00
26489;BME280;14169;43.684;10.484;2023-02-12T07:55:09;103444.88;;;2.91;100.00
26489;BME280;14169;43.684;10.484;2023-02-12T07:57:35;103451.50;;;3.05;100.00
26489;BME280;14169;43.684;10.484;2023-02-12T08:00:01;103461.81;;;3.26;100.00
26489;BME280;14169;43.684;10.484;2023-02-12T08:02:27;103450.94;;;3.54;100.00
26489;BME280;14169;43.684;10.484;2023-02-12T08:04:56;103450.97;;;3.76;100.00
26489;BME280;14169;43.684;10.484;2023-02-12T08:07:22;103444.09;;;3.97;100.00
26489;BME280;14169;43.684;10.484;2023-02-12T08:09:48;103438.09;;;4.20;100.00
26489;BME280;14169;43.684;10.484;2023-02-12T08:12:13;103427.03;;;4.46;100.00
26489;BME280;14169;43.684;10.484;2023-02-12T08:14:39;103419.31;;;4.71;100.00
26489;BME280;14169;43.684;10.484;2023-02-12T08:17:04;103416.81;;;4.97;100.00
26489;BME280;14169;43.684;10.484;2023-02-12T08:19:30;103404.63;;;5.19;100.00
26489;BME280;14169;43.684;10.484;2023-02-12T08:21:55;103403.38;;;5.33;100.00
26489;BME280;14169;43.684;10.484;2023-02-12T08:24:22;103407.25;;;5.46;100.00
26489;BME280;14169;43.684;10.484;2023-02-12T08:26:47;103409.97;;;5.50;100.00
26489;BME280;14169;43.684;10.484;2023-02-12T08:29:15;103408.75;;;5.66;100.00
26489;BME280;14169;43.684;10.484;2023-02-12T08:31:44;103407.72;;;5.89;100.00
26489;BME280;14169;43.684;10.484;2023-02-12T08:34:21;103411.16;;;6.16;100.00
26489;BME280;14169;43.684;10.484;2023-02-12T08:36:48;103408.34;;;6.38;100.00
26489;BME280;14169;43.684;10.484;2023-02-12T08:39:14;103411.38;;;6.55;100.00
26489;BME280;14169;43.684;10.484;2023-02-12T08:41:40;103403.28;;;6.74;100.00
26489;BME280;14169;43.684;10.484;2023-02-12T08:44:06;103401.25;;;6.97;100.00
26489;BME280;14169;43.684;10.484;2023-02-12T08:46:34;103410.72;;;7.27;100.00
26489;BME280;14169;43.684;10.484;2023-02-12T08:49:03;103396.56;;;7.49;100.00
26489;BME280;14169;43.684;10.484;2023-02-12T08:51:31;103407.59;;;7.78;100.00
26489;BME280;14169;43.684;10.484;2023-02-12T08:54:04;103406.09;;;7.89;100.00
26489;BME280;14169;43.684;10.484;2023-02-12T08:56:31;103410.69;;;8.00;100.00
26489;BME280;14169;43.684;10.484;2023-02-12T08:58:58;103414.13;;;7.99;100.00
26489;BME280;14169;43.684;10.484;2023-02-12T09:01:25;103423.06;;;8.12;100.00
26489;BME280;14169;43.684;10.484;2023-02-12T09:03:51;103420.13;;;8.37;100.00
26489;BME280;14169;43.684;10.484;2023-02-12T09:06:20;103422.19;;;8.53;100.00
26489;BME280;14169;43.684;10.484;2023-02-12T09:08:46;103415.63;;;8.73;100.00
26489;BME280;14169;43.684;10.484;2023-02-12T09:11:15;103428.06;;;8.88;100.00
26489;BME280;14169;43.684;10.484;2023-02-12T09:13:42;103432.72;;;9.04;100.00
26489;BME280;14169;43.684;10.484;2023-02-12T09:16:08;103432.97;;;9.19;100.00
26489;BME280;14169;43.684;10.484;2023-02-12T09:18:34;103431.66;;;9.44;100.00
26489;BME280;14169;43.684;10.484;2023-02-12T09:21:05;103431.19;;;9.70;100.00
26489;BME280;14169;43.684;10.484;2023-02-12T09:23:32;103433.31;;;9.97;100.00
26489;BME280;14169;43.684;10.484;2023-02-12T09:25:57;103424.03;;;10.17;100.00
26489;BME280;14169;43.684;10.484;2023-02-12T09:28:23;103416.44;;;10.35;100.00
26489;BME280;14169;43.684;10.484;2023-02-12T09:30:48;103413.22;;;10.56;100.00
26489;BME280;14169;43.684;10.484;2023-02-12T09:33:14;103424.72;;;10.71;100.00
26489;BME280;14169;43.684;10.484;2023-02-12T09:35:40;103413.72;;;11.04;100.00
26489;BME280;14169;43.684;10.484;2023-02-12T09:38:06;103420.97;;;11.38;100.00
26489;BME280;14169;43.684;10.484;2023-02-12T09:51:04;103425.34;;;11.41;100.00
26489;BME280;14169;43.684;10.484;2023-02-12T09:53:35;103437.41;;;11.28;100.00
26489;BME280;14169;43.684;10.484;2023-02-12T09:56:10;103427.06;;;11.37;100.00
26489;BME280;14169;43.684;10.484;2023-02-12T09:58:41;103424.41;;;11.33;100.00
26489;BME280;14169;43.684;10.484;2023-02-12T10:01:15;103421.84;;;11.37;96.93
26489;BME280;14169;43.684;10.484;2023-02-12T10:03:41;103422.84;;;11.54;95.09
26489;BME280;14169;43.684;10.484;2023-02-12T10:06:13;103422.25;;;11.95;95.28
26489;BME280;14169;43.684;10.484;2023-02-12T10:08:47;103421.47;;;12.11;92.84
26489;BME280;14169;43.684;10.484;2023-02-12T10:17:16;103418.16;;;12.51;89.35
26489;BME280;14169;43.684;10.484;2023-02-12T10:22:22;103416.53;;;13.18;90.58
26489;BME280;14169;43.684;10.484;2023-02-12T10:25:03;103420.00;;;13.59;87.67
26489;BME280;14169;43.684;10.484;2023-02-12T10:27:37;103420.84;;;13.75;84.59
26489;BME280;14169;43.684;10.484;2023-02-12T10:30:14;103419.97;;;13.76;85.98
26489;BME280;14169;43.684;10.484;2023-02-12T10:32:42;103414.63;;;14.09;85.81
26489;BME280;14169;43.684;10.484;2023-02-12T10:35:14;103411.09;;;14.17;82.24
26489;BME280;14169;43.684;10.484;2023-02-12T10:38:01;103421.50;;;14.42;81.20
26489;BME280;14169;43.684;10.484;2023-02-12T10:40:31;103416.00;;;14.85;80.23
26489;BME280;14169;43.684;10.484;2023-02-12T10:42:59;103416.53;;;15.30;78.99
26489;BME280;14169;43.684;10.484;2023-02-12T10:45:36;103416.38;;;15.49;74.95
26489;BME280;14169;43.684;10.484;2023-02-12T10:48:16;103412.97;;;15.35;71.79
26489;BME280;14169;43.684;10.484;2023-02-12T10:51:02;103405.84;;;15.52;71.99
26489;BME280;14169;43.684;10.484;2023-02-12T10:53:38;103403.75;;;15.83;72.67
26489;BME280;14169;43.684;10.484;2023-02-12T10:58:40;103376.22;;;16.14;70.42
26489;BME280;14169;43.684;10.484;2023-02-12T11:01:16;103370.63;;;16.37;70.31
26489;BME280;14169;43.684;10.484;2023-02-12T11:03:44;103375.22;;;16.87;69.49
26489;BME280;14169;43.684;10.484;2023-02-12T11:06:21;103371.09;;;17.22;66.40
26489;BME280;14169;43.684;10.484;2023-02-12T11:08:47;103365.16;;;17.10;64.67
26489;BME280;14169;43.684;10.484;2023-02-12T11:11:15;103354.31;;;17.28;65.11
26489;BME280;14169;43.684;10.484;2023-02-12T11:13:46;103353.03;;;17.50;64.20
26489;BME280;14169;43.684;10.484;2023-02-12T11:16:27;103351.22;;;17.96;64.54
26489;BME280;14169;43.684;10.484;2023-02-12T11:19:03;103348.13;;;17.76;62.05
26489;BME280;14169;43.684;10.484;2023-02-12T11:21:30;103343.47;;;17.46;62.17
26489;BME280;14169;43.684;10.484;2023-02-12T11:23:55;103339.31;;;17.77;64.41
26489;BME280;14169;43.684;10.484;2023-02-12T11:26:27;103334.75;;;18.26;62.99
26489;BME280;14169;43.684;10.484;2023-02-12T11:29:02;103335.53;;;18.68;60.12
26489;BME280;14169;43.684;10.484;2023-02-12T11:31:40;103329.53;;;18.97;58.26
26489;BME280;14169;43.684;10.484;2023-02-12T11:36:35;103321.88;;;19.21;55.65
26489;BME280;14169;43.684;10.484;2023-02-12T11:39:01;103320.28;;;18.79;60.70
26489;BME280;14169;43.684;10.484;2023-02-12T11:41:33;103308.94;;;18.39;66.14
26489;BME280;14169;43.684;10.484;2023-02-12T11:44:25;103309.16;;;19.00;65.25
26489;BME280;14169;43.684;10.484;2023-02-12T11:47:00;103310.97;;;18.98;62.02
26489;BME280;14169;43.684;10.484;2023-02-12T11:49:30;103300.13;;;19.43;62.57
26489;BME280;14169;43.684;10.484;2023-02-12T11:51:59;103300.53;;;19.60;63.54
26489;BME280;14169;43.684;10.484;2023-02-12T11:54:31;103303.25;;;18.91;61.10
26489;BME280;14169;43.684;10.484;2023-02-12T11:56:58;103301.84;;;18.78;64.12
26489;BME280;14169;43.684;10.484;2023-02-12T11:59:40;103298.91;;;18.16;65.60
26489;BME280;14169;43.684;10.484;2023-02-12T12:02:32;103297.06;;;18.57;71.23
26489;BME280;14169;43.684;10.484;2023-02-12T12:05:18;103290.91;;;17.80;70.22
26489;BME280;14169;43.684;10.484;2023-02-12T12:07:55;103280.38;;;17.80;72.81
26489;BME280;14169;43.684;10.484;2023-02-12T12:10:33;103276.72;;;17.44;74.46
26489;BME280;14169;43.684;10.484;2023-02-12T12:13:04;103267.84;;;17.89;76.54
26489;BME280;14169;43.684;10.484;2023-02-12T12:15:45;103269.25;;;18.05;75.31
26489;BME280;14169;43.684;10.484;2023-02-12T12:18:40;103258.59;;;18.10;74.23
26489;BME280;14169;43.684;10.484;2023-02-12T12:21:35;103258.97;;;18.31;73.68
26489;BME280;14169;43.684;10.484;2023-02-12T12:24:10;103261.09;;;18.88;72.70
26489;BME280;14169;43.684;10.484;2023-02-12T12:26:39;103252.91;;;18.97;67.60
26489;BME280;14169;43.684;10.484;2023-02-12T12:29:10;103251.22;;;18.61;68.35
26489;BME280;14169;43.684;10.484;2023-02-12T12:31:42;103253.22;;;18.51;73.15
26489;BME280;14169;43.684;10.484;2023-02-12T12:34:14;103255.34;;;18.72;70.94
26489;BME280;14169;43.684;10.484;2023-02-12T12:42:54;103244.56;;;19.13;65.78
26489;BME280;14169;43.684;10.484;2023-02-12T13:01:49;103243.09;;;17.09;97.28
26489;BME280;14169;43.684;10.484;2023-02-12T13:10:10;103237.41;;;17.32;98.71
26489;BME280;14169;43.684;10.484;2023-02-12T13:12:51;103239.16;;;17.33;99.31
26489;BME280;14169;43.684;10.484;2023-02-12T13:18:44;103224.84;;;18.22;94.93
26489;BME280;14169;43.684;10.484;2023-02-12T13:21:15;103223.13;;;18.90;90.25
26489;BME280;14169;43.684;10.484;2023-02-12T13:26:56;103223.63;;;19.36;83.45
26489;BME280;14169;43.684;10.484;2023-02-12T13:29:29;103220.16;;;19.34;83.51
26489;BME280;14169;43.684;10.484;2023-02-12T13:32:05;103217.19;;;19.16;82.34
26489;BME280;14169;43.684;10.484;2023-02-12T13:34:33;103214.88;;;19.34;81.94
26489;BME280;14169;43.684;10.484;2023-02-12T13:37:00;103221.72;;;19.42;81.12
26489;BME280;14169;43.684;10.484;2023-02-12T13:39:41;103218.34;;;19.66;80.29
26489;BME280;14169;43.684;10.484;2023-02-12T13:45:05;103223.41;;;19.73;76.02
26489;BME280;14169;43.684;10.484;2023-02-12T13:48:22;103217.38;;;19.97;76.18
26489;BME280;14169;43.684;10.484;2023-02-12T13:51:00;103205.34;;;20.15;75.40
26489;BME280;14169;43.684;10.484;2023-02-12T13:53:54;103210.28;;;19.99;74.00
26489;BME280;14169;43.684;10.484;2023-02-12T13:56:50;103213.50;;;20.35;74.08
26489;BME280;14169;43.684;10.484;2023-02-12T14:05:16;103214.63;;;21.74;66.72
26489;BME280;14169;43.684;10.484;2023-02-12T14:10:44;103211.75;;;22.45;60.42
26489;BME280;14169;43.684;10.484;2023-02-12T14:13:27;103213.97;;;22.96;58.30
26489;BME280;14169;43.684;10.484;2023-02-12T14:16:17;103215.34;;;23.05;55.77
26489;BME280;14169;43.684;10.484;2023-02-12T14:18:43;103214.13;;;22.93;55.00
26489;BME280;14169;43.684;10.484;2023-02-12T14:23:39;103206.19;;;22.30;57.43
26489;BME280;14169;43.684;10.484;2023-02-12T14:26:11;103201.13;;;21.11;61.17
26489;BME280;14169;43.684;10.484;2023-02-12T14:33:46;103203.56;;;21.17;65.77
26489;BME280;14169;43.684;10.484;2023-02-12T14:41:24;103194.91;;;21.35;69.23
26489;BME280;14169;43.684;10.484;2023-02-12T14:54:33;103191.75;;;19.99;75.01
26489;BME280;14169;43.684;10.484;2023-02-12T14:57:25;103190.81;;;20.00;76.28
26489;BME280;14169;43.684;10.484;2023-02-12T14:59:49;103198.63;;;20.57;73.16
26489;BME280;14169;43.684;10.484;2023-02-12T15:02:28;103195.31;;;20.25;73.89
26489;BME280;14169;43.684;10.484;2023-02-12T15:04:59;103197.53;;;20.63;75.78
26489;BME280;14169;43.684;10.484;2023-02-12T15:07:34;103201.72;;;20.94;73.63
26489;BME280;14169;43.684;10.484;2023-02-12T15:10:03;103196.84;;;21.30;71.02